Time;durP1;ratioP1;P1;durP2;ratioP2;P2;SDS_P1;SDS_P2;PMS_P1;PMS_P2;Temp;Humidity;BMP_temperature;BMP_pressure;BME280_temperature;BME280_humidity;BME280_pressure;Samples;Min_cycle;Max_cycle;Signal;HPM_P1;HPM_P2
2022/01/30 00:01:51;;;;;;;;;10.00;8.33;;;;;-147.17;100.00;50131.41;5024344;28;51756;-59
2022/01/30 00:04:16;;;;;;;;;7.00;7.00;;;;;-147.17;100.00;50111.72;5015131;28;51753;-58
2022/01/30 00:06:42;;;;;;;;;6.00;6.00;;;;;-147.17;100.00;50103.84;5027172;28;51367;-59
2022/01/30 00:09:14;;;;;;;;;8.67;7.33;;;;;-147.17;100.00;50099.91;5034475;28;51146;-59
2022/01/30 00:11:41;;;;;;;;;9.33;8.67;;;;;-147.17;100.00;50090.09;5031073;28;51132;-60
2022/01/30 00:14:12;;;;;;;;;6.33;6.00;;;;;-147.17;100.00;50121.56;5027322;28;51101;-61
2022/01/30 00:16:37;;;;;;;;;7.00;6.33;;;;;-147.17;100.00;50135.34;5027446;28;51244;-60
2022/01/30 00:22:12;;;;;;;;;8.00;5.67;;;;;-147.17;100.00;50113.69;5019986;28;51118;-60
2022/01/30 00:24:57;;;;;;;;;5.00;5.00;;;;;-147.17;100.00;50094.00;5021013;28;51278;-60
2022/01/30 00:27:44;;;;;;;;;7.00;6.00;;;;;-147.17;100.00;50099.91;5030184;28;51193;-59
2022/01/30 00:30:13;;;;;;;;;8.33;5.33;;;;;-147.17;100.00;50103.84;5020254;28;51404;-61
2022/01/30 00:32:38;;;;;;;;;6.00;6.00;;;;;-147.17;100.00;50109.75;5034937;28;51116;-61
2022/01/30 00:35:04;;;;;;;;;4.33;4.33;;;;;-147.17;100.00;50111.72;5029007;28;51682;-59
2022/01/30 00:37:29;;;;;;;;;6.00;6.00;;;;;-147.17;100.00;50119.59;5029819;28;51659;-57
2022/01/30 00:39:55;;;;;;;;;6.00;6.00;;;;;-147.17;100.00;50111.72;5022609;28;51741;-59
2022/01/30 00:42:22;;;;;;;;;6.00;6.00;;;;;-147.17;100.00;50105.81;5026805;28;51640;-60
2022/01/30 00:44:47;;;;;;;;;6.33;6.33;;;;;-147.17;100.00;50099.91;5031324;28;51133;-60
2022/01/30 00:47:14;;;;;;;;;12.00;10.00;;;;;-147.17;100.00;50076.31;5028897;28;51334;-59
2022/01/30 00:49:40;;;;;;;;;6.00;6.00;;;;;-147.17;100.00;50113.69;5035692;28;51066;-61
2022/01/30 00:52:07;;;;;;;;;5.50;5.50;;;;;-147.17;100.00;50097.94;5033683;28;51484;-61
2022/01/30 00:54:33;;;;;;;;;5.00;4.00;;;;;-147.17;100.00;50074.34;5019813;28;51914;-58
2022/01/30 00:56:59;;;;;;;;;4.67;4.00;;;;;-147.17;100.00;50111.72;5026470;28;51266;-59
2022/01/30 00:59:24;;;;;;;;;5.67;5.00;;;;;-147.17;100.00;50111.72;5020400;28;51225;-60
2022/01/30 01:01:50;;;;;;;;;5.33;4.00;;;;;-147.17;100.00;50107.78;5020099;28;51063;-60
2022/01/30 01:04:15;;;;;;;;;6.00;6.00;;;;;-147.17;100.00;50097.94;5026759;28;51775;-59
2022/01/30 01:06:48;;;;;;;;;7.67;5.00;;;;;-147.17;100.00;50133.38;5024945;28;51807;-60
2022/01/30 01:09:14;;;;;;;;;6.00;6.00;;;;;-147.17;100.00;50115.66;5032955;28;51247;-59
2022/01/30 01:12:40;;;;;;;;;6.00;5.00;;;;;-147.17;100.00;50143.22;5024917;28;51155;-59
2022/01/30 01:25:17;;;;;;;;;6.00;6.00;;;;;-147.17;100.00;50090.09;5027704;28;51152;-61
2022/01/30 01:27:43;;;;;;;;;5.33;5.33;;;;;-147.17;100.00;50084.19;5026633;28;51121;-59
2022/01/30 01:30:09;;;;;;;;;5.33;5.00;;;;;-147.17;100.00;50105.81;5029090;28;51478;-60
2022/01/30 01:32:34;;;;;;;;;2.00;2.00;;;;;-147.17;100.00;50052.69;5018474;28;51290;-58
2022/01/30 01:35:00;;;;;;;;;5.67;5.67;;;;;-147.17;100.00;50129.44;5022889;28;51927;-59
2022/01/30 01:37:25;;;;;;;;;6.00;5.33;;;;;-147.17;100.00;50088.13;5030476;28;51134;-60
2022/01/30 01:39:51;;;;;;;;;7.33;6.00;;;;;-147.17;100.00;50076.31;5023592;28;50958;-60
2022/01/30 01:42:17;;;;;;;;;8.00;7.33;;;;;-147.17;100.00;50103.84;5025492;28;51006;-61
2022/01/30 01:44:47;;;;;;;;;7.67;7.33;;;;;-147.17;100.00;50105.81;5025623;28;52563;-59
2022/01/30 01:47:14;;;;;;;;;6.00;5.33;;;;;-147.17;100.00;50080.25;5025503;28;51209;-57
2022/01/30 01:49:40;;;;;;;;;10.33;9.00;;;;;-147.17;100.00;50076.31;5023913;28;50984;-58
2022/01/30 01:52:19;;;;;;;;;7.67;7.00;;;;;-147.17;100.00;50097.94;5030467;28;50953;-59
2022/01/30 01:54:47;;;;;;;;;9.00;9.00;;;;;-147.17;100.00;50084.19;5027752;28;51815;-58
2022/01/30 01:57:13;;;;;;;;;6.00;6.00;;;;;-147.17;100.00;50082.22;5026657;28;51481;-59
2022/01/30 01:59:39;;;;;;;;;9.33;7.00;;;;;-147.17;100.00;50074.34;5017374;28;51338;-58
2022/01/30 02:02:05;;;;;;;;;7.50;6.00;;;;;-147.17;100.00;50060.56;5018332;28;52201;-58
2022/01/30 02:04:31;;;;;;;;;6.00;6.00;;;;;-147.17;100.00;50084.19;5022282;28;51817;-58
2022/01/30 02:09:40;;;;;;;;;8.00;7.00;;;;;-147.17;100.00;50107.78;5038126;27;51459;-60
2022/01/30 02:12:13;;;;;;;;;11.00;9.33;;;;;-147.17;100.00;50082.22;5027143;27;51748;-59
2022/01/30 02:14:48;;;;;;;;;6.00;5.33;;;;;-147.17;100.00;50084.19;5043634;27;51831;-58
2022/01/30 02:27:57;;;;;;;;;8.33;8.33;;;;;-147.17;100.00;50084.19;5045611;28;51346;-59
2022/01/30 02:30:24;;;;;;;;;7.33;6.00;;;;;-147.17;100.00;50119.59;5038402;27;51162;-59
2022/01/30 02:32:51;;;;;;;;;10.00;9.00;;;;;-147.17;100.00;50095.97;5043909;27;51602;-58
2022/01/30 02:35:16;;;;;;;;;7.67;6.00;;;;;-147.17;100.00;50147.16;5037866;27;51964;-59
2022/01/30 02:37:41;;;;;;;;;7.33;6.33;;;;;-147.17;100.00;50137.31;5046121;27;51072;-59
2022/01/30 02:40:11;;;;;;;;;9.00;8.75;;;;;-147.17;100.00;50064.50;5041730;27;51724;-59
2022/01/30 02:42:40;;;;;;;;;8.67;8.00;;;;;-147.17;100.00;50086.16;5044097;27;51416;-59
2022/01/30 02:45:09;;;;;;;;;7.00;7.00;;;;;-147.17;100.00;50082.22;5044494;27;51773;-58
2022/01/30 02:52:37;;;;;;;;;11.67;10.00;;;;;-147.17;100.00;50123.53;5045262;28;50903;-58
2022/01/30 02:55:04;;;;;;;;;7.00;7.00;;;;;-147.17;100.00;50113.69;5043295;28;51285;-59
2022/01/30 02:57:30;;;;;;;;;7.00;6.67;;;;;-147.17;100.00;50113.69;5045020;28;51091;-58
2022/01/30 02:59:55;;;;;;;;;8.33;7.33;;;;;-147.17;100.00;50111.72;5038984;27;51121;-59
2022/01/30 03:02:21;;;;;;;;;9.00;8.67;;;;;-147.17;100.00;50103.84;5034654;27;51816;-59
2022/01/30 03:04:46;;;;;;;;;9.00;7.33;;;;;-147.17;100.00;50109.75;5041696;27;51781;-59
2022/01/30 03:07:12;;;;;;;;;11.75;10.75;;;;;-147.17;100.00;50076.31;5042362;27;51428;-59
2022/01/30 03:09:37;;;;;;;;;10.00;9.33;;;;;-147.17;100.00;50129.44;5042523;27;52368;-58
2022/01/30 03:12:03;;;;;;;;;9.00;9.00;;;;;-147.17;100.00;50107.78;5049700;27;51172;-59
2022/01/30 03:14:29;;;;;;;;;9.00;7.00;;;;;-147.17;100.00;50090.09;5046005;28;50963;-57
2022/01/30 03:16:55;;;;;;;;;10.25;10.25;;;;;-147.17;100.00;50101.88;5039028;27;51225;-58
2022/01/30 03:19:20;;;;;;;;;12.75;11.50;;;;;-147.17;100.00;50141.25;5026228;27;51726;-58
2022/01/30 03:21:46;;;;;;;;;9.33;8.67;;;;;-147.17;100.00;50123.53;5026753;28;51387;-59
2022/01/30 03:24:12;;;;;;;;;11.00;11.00;;;;;-147.17;100.00;50127.47;5019963;28;52695;-59
2022/01/30 03:26:39;;;;;;;;;9.67;9.33;;;;;-147.17;100.00;50103.84;5025474;27;51221;-58
2022/01/30 03:29:06;;;;;;;;;11.33;11.00;;;;;-147.17;100.00;50107.78;5025550;28;51414;-59
2022/01/30 03:31:40;;;;;;;;;11.00;10.33;;;;;-147.17;100.00;50133.38;5019245;27;51255;-59
2022/01/30 03:34:11;;;;;;;;;10.00;9.25;;;;;-147.17;100.00;50151.09;5029173;27;53013;-58
2022/01/30 03:36:37;;;;;;;;;12.33;10.00;;;;;-147.17;100.00;50105.81;5025736;27;51222;-60
2022/01/30 03:39:04;;;;;;;;;10.00;10.00;;;;;-147.17;100.00;50105.81;5021156;28;50948;-59
2022/01/30 03:41:29;;;;;;;;;12.33;12.00;;;;;-147.17;100.00;50135.34;5028220;27;51154;-58
2022/01/30 03:43:54;;;;;;;;;8.67;8.00;;;;;-147.17;100.00;50149.13;5031165;28;51760;-61
2022/01/30 03:46:23;;;;;;;;;10.00;10.00;;;;;-147.17;100.00;50155.03;5018717;27;51358;-59
2022/01/30 03:48:49;;;;;;;;;7.33;7.33;;;;;-147.17;100.00;50157.00;5019612;28;51057;-59
2022/01/30 03:51:15;;;;;;;;;8.67;7.00;;;;;-147.17;100.00;50218.03;5026676;28;51170;-59
2022/01/30 03:53:41;;;;;;;;;5.00;5.00;;;;;-147.17;100.00;50225.91;5040231;28;50967;-59
2022/01/30 03:56:07;;;;;;;;;7.00;7.00;;;;;-147.17;100.00;50220.00;5025505;28;51155;-59
2022/01/30 03:58:33;;;;;;;;;5.33;5.33;;;;;-147.17;100.00;50279.06;5019019;28;51025;-58
2022/01/30 04:00:59;;;;;;;;;6.00;5.33;;;;;-147.17;100.00;50296.78;5032816;27;51169;-59
2022/01/30 04:03:24;;;;;;;;;7.00;6.67;;;;;-147.17;100.00;50283.00;5028941;27;51882;-59
2022/01/30 04:05:50;;;;;;;;;4.67;3.00;;;;;-147.17;100.00;50306.63;5021516;27;51210;-58
2022/01/30 04:08:16;;;;;;;;;6.67;5.67;;;;;-147.17;100.00;50324.31;5026978;27;51136;-59
2022/01/30 04:10:41;;;;;;;;;4.00;2.00;;;;;-147.17;100.00;50363.69;5029588;27;51058;-59
2022/01/30 04:13:07;;;;;;;;;3.00;3.00;;;;;-147.17;100.00;50375.50;5028848;27;52771;-59
2022/01/30 04:15:33;;;;;;;;;3.00;2.33;;;;;-147.17;100.00;50430.63;5029547;28;51007;-59
2022/01/30 04:18:00;;;;;;;;;3.33;2.00;;;;;-147.17;100.00;50430.63;5022514;28;51141;-58
2022/01/30 04:20:25;;;;;;;;;3.00;2.33;;;;;-147.17;100.00;50462.13;5031694;27;51323;-59
2022/01/30 04:22:51;;;;;;;;;2.00;2.00;;;;;-147.17;100.00;50470.00;5026112;27;51938;-61
2022/01/30 04:25:16;;;;;;;;;2.33;2.00;;;;;-147.17;100.00;50491.66;5025311;28;51043;-61
2022/01/30 04:27:42;;;;;;;;;2.33;2.33;;;;;-147.17;100.00;50471.97;5016675;28;51179;-62
2022/01/30 04:30:09;;;;;;;;;4.00;3.67;;;;;-147.17;100.00;50479.84;5029597;28;51268;-60
2022/01/30 04:32:40;;;;;;;;;4.00;4.00;;;;;-147.17;100.00;50501.50;5028562;27;51704;-61
2022/01/30 04:35:12;;;;;;;;;2.67;2.67;;;;;-147.17;100.00;50503.47;5017126;27;51052;-60
2022/01/30 04:53:37;;;;;;;;;2.00;2.00;;;;;-147.17;100.00;50534.97;5024292;27;50977;-59
2022/01/30 05:01:36;;;;;;;;;2.00;2.00;;;;;-147.17;100.00;50505.44;5029951;27;51109;-60
2022/01/30 05:04:20;;;;;;;;;3.00;3.00;;;;;-147.17;100.00;50515.28;5032326;27;52758;-61
2022/01/30 05:07:26;;;;;;;;;6.00;2.00;;;;;-147.17;100.00;50529.06;5029453;27;51181;-60
2022/01/30 05:09:39;;;;;;;;;2.67;2.00;;;;;-147.17;100.00;50513.31;5018135;28;51031;-59
2022/01/30 05:12:05;;;;;;;;;2.00;2.00;;;;;-147.17;100.00;50515.28;5024812;27;51589;-60
2022/01/30 05:14:36;;;;;;;;;2.67;1.00;;;;;-147.17;100.00;50507.41;5023404;27;51372;-60
2022/01/30 05:17:03;;;;;;;;;1.67;1.67;;;;;-147.17;100.00;50513.31;5020781;27;51116;-60
2022/01/30 05:19:29;;;;;;;;;2.00;2.00;;;;;-147.17;100.00;50513.31;5028766;28;51132;-60
2022/01/30 05:21:55;;;;;;;;;1.67;1.67;;;;;-147.17;100.00;50546.78;5025375;27;51343;-59
2022/01/30 05:24:21;;;;;;;;;2.67;2.33;;;;;-147.17;100.00;50511.34;5028855;28;52118;-59
2022/01/30 05:26:47;;;;;;;;;4.67;3.00;;;;;-147.17;100.00;50552.69;5025210;27;51143;-59
2022/01/30 05:29:14;;;;;;;;;1.67;1.00;;;;;-147.17;100.00;50521.19;5029098;27;51206;-58
2022/01/30 05:31:41;;;;;;;;;2.67;2.00;;;;;-147.17;100.00;50511.34;5015137;27;51622;-60
2022/01/30 05:34:06;;;;;;;;;2.00;2.00;;;;;-147.17;100.00;50588.13;5026234;28;51871;-60
2022/01/30 05:36:32;;;;;;;;;1.67;1.67;;;;;-147.17;100.00;50529.06;5019238;28;51048;-61
2022/01/30 05:38:59;;;;;;;;;3.00;2.00;;;;;-147.17;100.00;50497.56;5049907;27;52820;-59
2022/01/30 05:41:25;;;;;;;;;2.00;2.00;;;;;-147.17;100.00;50538.91;5029386;27;51167;-59
2022/01/30 05:43:55;;;;;;;;;3.00;1.67;;;;;-147.17;100.00;50540.88;5028968;28;51931;-59
2022/01/30 05:46:36;;;;;;;;;2.33;2.00;;;;;-147.17;100.00;50534.97;5029844;28;51206;-60
2022/01/30 05:49:05;;;;;;;;;3.00;3.00;;;;;-147.17;100.00;50513.31;5018310;28;51144;-60
2022/01/30 05:51:30;;;;;;;;;3.00;2.00;;;;;-147.17;100.00;50515.28;5021556;28;51428;-61
2022/01/30 05:53:55;;;;;;;;;2.67;1.33;;;;;-147.17;100.00;50523.16;5029877;27;51840;-60
2022/01/30 05:56:21;;;;;;;;;3.00;3.00;;;;;-147.17;100.00;50540.88;5027772;28;51293;-60
2022/01/30 05:58:47;;;;;;;;;3.00;2.00;;;;;-147.17;100.00;50529.06;5026597;27;51075;-61
2022/01/30 06:01:12;;;;;;;;;4.00;2.67;;;;;-147.17;100.00;50533.00;5029092;28;50894;-61
2022/01/30 06:03:38;;;;;;;;;3.00;2.00;;;;;-147.17;100.00;50572.38;5028561;27;51817;-60
2022/01/30 06:06:05;;;;;;;;;4.00;2.00;;;;;-147.17;100.00;50533.00;5026943;27;50976;-61
2022/01/30 06:11:05;;;;;;;;;3.00;2.00;;;;;-147.17;100.00;50531.03;5020090;28;51306;-61
2022/01/30 06:13:31;;;;;;;;;3.00;2.33;;;;;-147.17;100.00;50548.75;5026839;27;51826;-60
2022/01/30 06:15:56;;;;;;;;;2.00;1.75;;;;;-147.17;100.00;50505.44;5029242;28;51070;-61
2022/01/30 06:18:22;;;;;;;;;3.67;3.33;;;;;-147.17;100.00;50544.81;5030081;27;51394;-60
2022/01/30 06:20:47;;;;;;;;;3.00;2.33;;;;;-147.17;100.00;50509.38;5015709;27;51268;-61
2022/01/30 06:23:12;;;;;;;;;2.00;1.00;;;;;-147.17;100.00;50513.31;5019569;28;51598;-60
2022/01/30 06:25:38;;;;;;;;;3.00;3.00;;;;;-147.17;100.00;50523.16;5025648;28;51233;-61
2022/01/30 06:28:03;;;;;;;;;3.33;3.33;;;;;-147.17;100.00;50495.59;5024913;27;51168;-61
2022/01/30 06:30:29;;;;;;;;;2.00;2.00;;;;;-147.17;100.00;50489.69;5029494;27;51233;-61
2022/01/30 06:32:54;;;;;;;;;3.33;2.00;;;;;-147.17;100.00;50552.69;5032679;27;52168;-61
2022/01/30 06:35:20;;;;;;;;;3.00;2.00;;;;;-147.17;100.00;50521.19;5023528;28;51130;-60
2022/01/30 06:37:45;;;;;;;;;4.67;1.67;;;;;-147.17;100.00;50497.56;5027881;27;51189;-60
2022/01/30 06:40:12;;;;;;;;;10.00;9.00;;;;;-147.17;100.00;50505.44;5030030;27;51157;-61
2022/01/30 06:42:37;;;;;;;;;5.67;5.00;;;;;-147.17;100.00;50503.47;5020042;28;51209;-60
2022/01/30 06:45:02;;;;;;;;;3.00;2.33;;;;;-147.17;100.00;50536.94;5026799;28;51086;-61
2022/01/30 06:47:28;;;;;;;;;2.00;1.67;;;;;-147.17;100.00;50515.28;5024875;27;51131;-60
2022/01/30 06:49:53;;;;;;;;;3.00;3.00;;;;;-147.17;100.00;50497.56;5028013;27;51233;-61
2022/01/30 06:52:19;;;;;;;;;5.00;4.00;;;;;-147.17;100.00;50517.25;5054311;27;51701;-61
2022/01/30 06:54:44;;;;;;;;;3.00;2.33;;;;;-147.17;100.00;50531.03;5026205;28;51100;-60
2022/01/30 06:57:10;;;;;;;;;3.67;3.00;;;;;-147.17;100.00;50519.22;5028747;28;50878;-60
2022/01/30 06:59:35;;;;;;;;;4.00;3.00;;;;;-147.17;100.00;50548.75;5030694;27;51418;-60
2022/01/30 07:02:01;;;;;;;;;2.67;2.67;;;;;-147.17;100.00;50531.03;5034611;27;51966;-59
2022/01/30 07:04:26;;;;;;;;;2.67;2.67;;;;;-147.17;100.00;50525.13;5031253;27;51130;-59
2022/01/30 07:06:52;;;;;;;;;2.00;2.00;;;;;-147.17;100.00;50550.72;5030884;28;51546;-59
2022/01/30 07:09:17;;;;;;;;;2.00;2.00;;;;;-147.17;100.00;50546.78;5030737;27;51204;-59
2022/01/30 07:11:42;;;;;;;;;2.67;1.00;;;;;-147.17;100.00;50533.00;5030561;27;51637;-59
2022/01/30 07:14:08;;;;;;;;;2.67;2.00;;;;;-147.17;100.00;50554.66;5030623;28;51088;-60
2022/01/30 07:16:33;;;;;;;;;1.33;1.33;;;;;-147.17;100.00;50536.94;5034153;27;51682;-60
2022/01/30 07:18:59;;;;;;;;;2.67;2.33;;;;;-147.17;100.00;50485.75;5031904;28;51170;-59
2022/01/30 07:21:24;;;;;;;;;3.00;2.33;;;;;-147.17;100.00;50533.00;5036185;27;51997;-60
2022/01/30 07:23:50;;;;;;;;;2.33;2.00;;;;;-147.17;100.00;50491.66;5030755;28;51014;-60
2022/01/30 07:26:15;;;;;;;;;1.00;1.00;;;;;-147.17;100.00;50501.50;5020592;28;51285;-61
2022/01/30 07:28:40;;;;;;;;;4.00;2.67;;;;;-147.17;100.00;50517.25;5024705;27;51324;-60
2022/01/30 07:31:06;;;;;;;;;2.00;2.00;;;;;-147.17;100.00;50509.38;5032544;27;51853;-60
2022/01/30 07:33:33;;;;;;;;;3.67;2.00;;;;;-147.17;100.00;50487.72;5028343;28;51170;-60
2022/01/30 07:35:59;;;;;;;;;4.00;4.00;;;;;-147.17;100.00;50515.28;5025462;28;51055;-60
2022/01/30 07:38:25;;;;;;;;;5.00;3.00;;;;;-147.17;100.00;50533.00;5027969;27;51228;-60
2022/01/30 07:40:51;;;;;;;;;4.00;3.00;;;;;-147.17;100.00;50495.59;5031064;27;50891;-60
2022/01/30 07:43:16;;;;;;;;;4.33;2.00;;;;;-147.17;100.00;50493.63;5032078;27;50967;-60
2022/01/30 07:45:42;;;;;;;;;2.67;2.67;;;;;-147.17;100.00;50515.28;5029365;28;51135;-60
2022/01/30 07:48:07;;;;;;;;;4.00;3.33;;;;;-147.17;100.00;50507.41;5026103;27;51262;-60
2022/01/30 07:50:32;;;;;;;;;3.00;2.00;;;;;-147.17;100.00;50517.25;5069090;27;51913;-60
2022/01/30 07:52:58;;;;;;;;;3.75;3.00;;;;;-147.17;100.00;50501.50;5033923;27;51103;-59
2022/01/30 07:55:23;;;;;;;;;3.00;2.67;;;;;-147.17;100.00;50503.47;5028082;28;51200;-60
2022/01/30 07:57:49;;;;;;;;;3.00;3.00;;;;;-147.17;100.00;50485.75;5035113;27;51241;-60
2022/01/30 08:00:15;;;;;;;;;4.00;3.00;;;;;-147.17;100.00;50477.88;5023011;28;52933;-60
2022/01/30 08:02:40;;;;;;;;;4.00;2.00;;;;;-147.17;100.00;50509.38;5027777;28;51112;-60
2022/01/30 08:05:06;;;;;;;;;2.00;2.00;;;;;-147.17;100.00;50533.00;5031569;27;51131;-59
2022/01/30 08:07:32;;;;;;;;;4.67;4.00;;;;;-147.17;100.00;50501.50;5031064;27;51224;-61
2022/01/30 08:09:58;;;;;;;;;4.33;3.00;;;;;-147.17;100.00;50477.88;5023062;27;51641;-60
2022/01/30 08:12:23;;;;;;;;;4.00;3.67;;;;;-147.17;100.00;50507.41;5023856;28;51547;-59
2022/01/30 08:14:49;;;;;;;;;4.00;3.67;;;;;-147.17;100.00;50489.69;5023212;28;50901;-59
2022/01/30 08:17:22;;;;;;;;;4.00;4.00;;;;;-147.17;100.00;50511.34;5027946;27;50983;-59
2022/01/30 08:19:49;;;;;;;;;3.67;3.00;;;;;-147.17;100.00;50533.00;5022932;28;51917;-61
2022/01/30 08:22:14;;;;;;;;;5.00;3.00;;;;;-147.17;100.00;50485.75;5019234;28;51114;-60
2022/01/30 08:24:40;;;;;;;;;5.00;4.67;;;;;-147.17;100.00;50509.38;5027594;28;51328;-60
2022/01/30 08:27:06;;;;;;;;;4.67;3.67;;;;;-147.17;100.00;50501.50;5029117;28;50842;-60
2022/01/30 08:29:31;;;;;;;;;5.00;4.33;;;;;-147.17;100.00;50517.25;5026189;28;51038;-60
2022/01/30 08:31:58;;;;;;;;;3.33;3.00;;;;;-147.17;100.00;50513.31;5028006;27;51316;-61
2022/01/30 08:34:24;;;;;;;;;3.00;2.00;;;;;-147.17;100.00;50536.94;5024309;28;51190;-61
2022/01/30 08:36:49;;;;;;;;;3.00;2.67;;;;;-147.17;100.00;50509.38;5021837;28;51076;-60
2022/01/30 08:39:14;;;;;;;;;2.00;2.00;;;;;-147.17;100.00;50534.97;5029916;27;51264;-60
2022/01/30 08:41:40;;;;;;;;;3.33;2.00;;;;;-147.17;100.00;50507.41;5026153;27;51208;-60
2022/01/30 08:44:05;;;;;;;;;3.33;3.00;;;;;-147.17;100.00;50560.56;5025229;28;51293;-61
2022/01/30 08:46:31;;;;;;;;;2.00;1.67;;;;;-147.17;99.15;50564.50;5026161;27;50949;-61
2022/01/30 08:48:56;;;;;;;;;7.33;3.00;;;;;-147.17;98.96;50533.00;5026293;28;51958;-60
2022/01/30 08:51:22;;;;;;;;;0.00;0.00;;;;;-147.17;98.24;50562.53;5020903;27;51174;-60
2022/01/30 08:53:48;;;;;;;;;3.33;3.33;;;;;-147.17;98.04;50550.72;5022616;28;50911;-61
2022/01/30 08:56:16;;;;;;;;;3.67;2.00;;;;;-147.17;99.14;50533.00;5027315;28;50909;-63
2022/01/30 08:58:41;;;;;;;;;1.67;1.67;;;;;-147.17;98.37;50560.56;5025031;28;51255;-61
2022/01/30 09:01:08;;;;;;;;;3.67;3.00;;;;;-147.17;97.55;50572.38;5020848;28;51258;-59
2022/01/30 09:03:34;;;;;;;;;2.67;2.33;;;;;-147.17;95.62;50653.09;5027314;28;51131;-60
2022/01/30 09:05:59;;;;;;;;;3.33;3.00;;;;;-147.17;94.31;50670.81;5021667;28;51001;-61
2022/01/30 09:08:24;;;;;;;;;3.00;1.67;;;;;-147.17;92.33;50655.06;5027547;27;51020;-61
2022/01/30 09:10:50;;;;;;;;;3.33;2.67;;;;;-147.17;91.48;50684.59;5023221;28;51151;-61
2022/01/30 09:13:15;;;;;;;;;2.67;2.00;;;;;-147.17;91.12;50637.34;5027289;27;51173;-61
2022/01/30 09:15:42;;;;;;;;;3.00;3.00;;;;;-147.17;90.57;50674.75;5025908;28;51290;-61
2022/01/30 09:18:10;;;;;;;;;3.00;2.00;;;;;-147.17;90.30;50682.63;5027249;28;51908;-60
2022/01/30 09:20:39;;;;;;;;;2.33;2.33;;;;;-147.17;89.97;50655.06;5024031;28;50998;-60
2022/01/30 09:23:04;;;;;;;;;5.33;5.33;;;;;-147.17;89.87;50639.31;5022321;28;51051;-60
2022/01/30 09:25:30;;;;;;;;;2.33;2.33;;;;;-147.17;90.02;50668.84;5028151;27;51341;-59
2022/01/30 09:27:55;;;;;;;;;2.33;2.00;;;;;-147.17;90.17;50627.50;5018564;28;51707;-59
2022/01/30 09:32:56;;;;;;;;;4.00;3.33;;;;;-147.17;90.17;50680.66;5197271;22;51203;-60
2022/01/30 09:35:22;;;;;;;;;4.00;2.33;;;;;-147.17;89.97;50653.09;5023542;28;51381;-62
2022/01/30 09:37:54;;;;;;;;;5.00;4.00;;;;;-147.17;89.84;50643.25;5010467;28;51884;-61
2022/01/30 09:40:20;;;;;;;;;2.67;2.67;;;;;-147.17;89.77;50653.09;5010004;28;51186;-60
2022/01/30 09:42:46;;;;;;;;;4.00;4.00;;;;;-147.17;88.61;50686.56;5008190;28;51037;-60
2022/01/30 09:45:15;;;;;;;;;3.67;3.00;;;;;-147.17;89.20;50637.34;4997332;28;51182;-60
2022/01/30 09:47:41;;;;;;;;;3.67;3.00;;;;;-147.17;89.38;50639.31;5010918;28;51786;-60
2022/01/30 09:50:09;;;;;;;;;5.00;3.00;;;;;-147.17;89.84;50647.19;5012417;28;51066;-61
2022/01/30 09:52:36;;;;;;;;;4.00;2.67;;;;;-147.17;89.76;50651.13;5011694;28;51111;-61
2022/01/30 09:55:03;;;;;;;;;4.00;3.00;;;;;-147.17;89.50;50674.75;4992133;28;51292;-60
2022/01/30 09:57:29;;;;;;;;;14.75;14.00;;;;;-147.17;89.60;50647.19;5010829;28;52724;-61
2022/01/30 09:59:57;;;;;;;;;4.00;4.00;;;;;-147.17;89.25;50635.38;5012151;28;51032;-60
2022/01/30 10:02:26;;;;;;;;;4.67;4.00;;;;;-147.17;89.30;50623.56;5010582;28;51240;-61
2022/01/30 10:04:53;;;;;;;;;4.00;3.00;;;;;-147.17;89.08;50625.53;5010593;28;51307;-60
2022/01/30 10:07:21;;;;;;;;;4.33;3.67;;;;;-147.17;88.82;50660.97;4994046;28;52091;-61
2022/01/30 10:09:49;;;;;;;;;4.00;3.00;;;;;-147.17;88.33;50680.66;5011163;28;51129;-61
2022/01/30 10:12:19;;;;;;;;;4.00;3.00;;;;;-147.17;88.33;50637.34;5002295;28;51074;-62
2022/01/30 10:14:48;;;;;;;;;5.00;4.00;;;;;-147.17;88.59;50633.41;5008377;28;51215;-60
2022/01/30 10:17:35;;;;;;;;;3.33;3.33;;;;;-147.17;89.01;50625.53;5009350;28;51912;-61
2022/01/30 10:20:05;;;;;;;;;3.00;3.00;;;;;-147.17;88.62;50647.19;5007942;28;51772;-61
2022/01/30 10:22:31;;;;;;;;;2.67;2.00;;;;;-147.17;88.48;50605.84;4977390;28;51033;-60
2022/01/30 10:24:59;;;;;;;;;2.00;2.00;;;;;-147.17;88.69;50676.72;5008934;28;51153;-60
2022/01/30 10:27:28;;;;;;;;;3.33;3.00;;;;;-147.17;88.20;50647.19;5010979;28;51102;-60
2022/01/30 10:30:06;;;;;;;;;3.67;3.67;;;;;-147.17;88.20;50633.41;5013298;28;50967;-61
2022/01/30 10:32:32;;;;;;;;;3.67;2.33;;;;;-147.17;88.19;50625.53;5015390;28;51407;-61
2022/01/30 10:35:02;;;;;;;;;5.33;3.67;;;;;-147.17;88.22;50647.19;5012570;28;51933;-61
2022/01/30 10:37:28;;;;;;;;;3.33;3.33;;;;;-147.17;88.08;50676.72;5007978;28;51276;-61
2022/01/30 10:40:13;;;;;;;;;1.67;1.67;;;;;-147.17;87.80;50631.44;5012350;28;50967;-61
2022/01/30 10:42:43;;;;;;;;;6.00;3.33;;;;;-147.17;87.14;50682.63;4997837;28;51419;-59
2022/01/30 10:45:12;;;;;;;;;3.67;3.00;;;;;-147.17;86.74;50688.53;5010520;28;51252;-61
2022/01/30 10:47:39;;;;;;;;;5.00;4.00;;;;;-147.17;87.42;50680.66;5012927;28;52017;-61
2022/01/30 10:50:21;;;;;;;;;4.33;4.33;;;;;-147.17;87.73;50651.13;5011381;28;51268;-61
2022/01/30 10:52:59;;;;;;;;;4.33;4.00;;;;;-147.17;88.32;50680.66;5012525;28;51222;-61
2022/01/30 10:55:39;;;;;;;;;4.00;3.33;;;;;-147.17;88.42;50643.25;4997136;28;51173;-61
2022/01/30 10:58:06;;;;;;;;;4.00;4.00;;;;;-147.17;87.96;50678.69;5013744;28;51978;-61
2022/01/30 11:00:42;;;;;;;;;4.67;3.33;;;;;-147.17;88.04;50653.09;4994085;28;51185;-61
2022/01/30 11:03:09;;;;;;;;;3.67;3.67;;;;;-147.17;90.37;50588.13;5010739;28;51179;-60
2022/01/30 11:06:02;;;;;;;;;4.00;4.00;;;;;-147.17;90.12;50651.13;5009420;28;51151;-61
2022/01/30 11:08:32;;;;;;;;;6.00;5.00;;;;;-147.17;87.66;50725.94;5008197;28;52050;-60
2022/01/30 11:11:33;;;;;;;;;5.00;5.00;;;;;-147.17;84.86;50840.13;4990820;28;51074;-59
2022/01/30 11:14:14;;;;;;;;;5.00;4.33;;;;;-147.17;77.87;51015.34;5000212;28;51099;-61
2022/01/30 11:19:25;;;;;;;;;5.67;4.00;;;;;-147.17;75.69;50964.16;4999233;28;51678;-59
2022/01/30 11:21:53;;;;;;;;;5.67;4.67;;;;;-147.17;75.93;50922.81;5000199;28;51144;-59
2022/01/30 11:24:23;;;;;;;;;4.33;4.00;;;;;-147.17;76.60;50938.56;5014454;28;51187;-58
2022/01/30 11:26:48;;;;;;;;;5.33;5.00;;;;;-147.17;75.86;50926.75;5011718;28;51018;-59
2022/01/30 11:29:17;;;;;;;;;7.67;6.33;;;;;-147.17;76.28;50907.06;5014632;28;51978;-59
2022/01/30 11:31:43;;;;;;;;;6.00;6.00;;;;;-147.17;75.91;50895.25;5011093;28;51082;-59
2022/01/30 11:34:09;;;;;;;;;8.00;6.67;;;;;-147.17;74.93;50972.03;5014425;28;51161;-61
2022/01/30 11:36:42;;;;;;;;;5.33;5.00;;;;;-147.17;75.55;50912.97;5011375;28;51140;-59
2022/01/30 11:39:14;;;;;;;;;7.00;6.00;;;;;-147.17;75.29;50974.00;5013980;28;51189;-60
2022/01/30 11:41:39;;;;;;;;;5.00;5.00;;;;;-147.17;73.14;51135.44;5010782;28;50845;-59
2022/01/30 11:44:17;;;;;;;;;9.33;7.67;;;;;-147.17;72.68;51068.50;4996583;28;51235;-59
2022/01/30 11:46:49;;;;;;;;;5.33;5.33;;;;;-147.17;73.27;51050.78;5014727;28;51281;-60
2022/01/30 11:49:14;;;;;;;;;7.00;7.00;;;;;-147.17;72.12;51088.19;4987067;28;54044;-61
2022/01/30 11:52:02;;;;;;;;;6.33;6.00;;;;;-147.17;72.40;51013.38;5012763;28;50977;-60
2022/01/30 11:54:41;;;;;;;;;7.00;6.33;;;;;-147.17;72.40;51064.56;5014659;28;51084;-60
2022/01/30 11:57:22;;;;;;;;;8.67;7.00;;;;;-147.17;72.12;51035.03;5013016;28;51242;-64
2022/01/30 11:59:53;;;;;;;;;8.00;8.00;;;;;-147.17;72.01;51021.25;5012620;28;54281;-60
2022/01/30 12:02:23;;;;;;;;;6.00;5.67;;;;;-147.17;72.06;50991.72;5014581;28;51256;-60
2022/01/30 12:05:11;;;;;;;;;6.67;5.67;;;;;-147.17;71.21;51009.44;5013785;28;51096;-60
2022/01/30 12:07:40;;;;;;;;;7.00;6.00;;;;;-147.17;71.40;51017.31;4992240;28;51127;-60
2022/01/30 12:10:15;;;;;;;;;7.33;6.00;;;;;-147.17;72.55;51001.56;5012432;28;51104;-59
2022/01/30 12:12:54;;;;;;;;;6.67;6.00;;;;;-147.17;72.32;50997.63;5019919;28;51029;-59
2022/01/30 12:15:39;;;;;;;;;9.00;7.33;;;;;-147.17;72.29;51009.44;5012656;28;51141;-57
2022/01/30 12:18:07;;;;;;;;;8.67;8.67;;;;;-147.17;70.80;51017.31;5013509;28;51054;-57